createdAt,value
2019-02-07T00:00:21.439Z,67.32
2019-02-07T00:01:07.067Z,67.26
2019-02-07T00:01:42.431Z,67.20
2019-02-07T00:02:16.751Z,67.25
2019-02-07T00:02:51.536Z,67.27
2019-02-07T00:03:25.875Z,67.17
2019-02-07T00:04:01.856Z,67.11
2019-02-07T00:04:36.450Z,67.13
2019-02-07T00:05:11.044Z,67.12
2019-02-07T00:05:45.418Z,66.96
2019-02-07T00:06:20.224Z,66.89
2019-02-07T00:06:54.844Z,66.90
2019-02-07T00:07:29.351Z,66.92
2019-02-07T00:08:03.802Z,66.99
2019-02-07T00:08:38.704Z,67.12
2019-02-07T00:09:13.150Z,67.15
2019-02-07T00:09:47.452Z,67.17
2019-02-07T00:10:22.113Z,67.10
2019-02-07T00:10:56.455Z,66.99
2019-02-07T00:11:30.817Z,66.92
2019-02-07T00:12:05.161Z,66.81
2019-02-07T00:12:40.825Z,66.68
2019-02-07T00:13:15.143Z,66.68
2019-02-07T00:13:49.512Z,66.68
2019-02-07T00:14:23.843Z,66.65
2019-02-07T00:14:58.359Z,66.61
2019-02-07T00:15:33.004Z,66.57
2019-02-07T00:16:07.338Z,66.57
2019-02-07T00:16:41.760Z,66.53
2019-02-07T00:17:16.091Z,66.50
2019-02-07T00:17:50.792Z,66.41
2019-02-07T00:18:25.112Z,66.37
2019-02-07T00:18:59.846Z,66.37
2019-02-07T00:19:34.445Z,66.28
2019-02-07T00:20:09.407Z,66.14
2019-02-07T00:20:44.618Z,66.11
2019-02-07T00:21:19.281Z,66.10
2019-02-07T00:21:53.628Z,66.08
2019-02-07T00:22:27.955Z,66.03
2019-02-07T00:23:02.691Z,66.07
2019-02-07T00:23:37.310Z,66.12
2019-02-07T00:24:11.684Z,66.11
2019-02-07T00:24:46.402Z,66.19
2019-02-07T00:25:21.047Z,66.30
2019-02-07T00:25:55.966Z,66.35
2019-02-07T00:26:30.427Z,66.28
2019-02-07T00:27:05.370Z,66.30
2019-02-07T00:27:39.957Z,66.34
2019-02-07T00:28:14.666Z,66.40
2019-02-07T00:28:49.022Z,66.42
2019-02-07T00:29:23.719Z,66.40
2019-02-07T00:29:58.061Z,66.01
2019-02-07T00:30:32.601Z,65.95
2019-02-07T00:31:07.346Z,66.03
2019-02-07T00:31:42.250Z,66.08
2019-02-07T00:32:16.594Z,66.14
2019-02-07T00:32:51.584Z,66.16
2019-02-07T00:33:26.192Z,66.08
2019-02-07T00:34:01.106Z,66.03
2019-02-07T00:34:35.454Z,66.09
2019-02-07T00:35:10.565Z,66.12
2019-02-07T00:35:44.934Z,66.21
2019-02-07T00:36:19.463Z,66.19
2019-02-07T00:36:53.803Z,66.24
2019-02-07T00:37:28.232Z,66.28
2019-02-07T00:38:02.908Z,66.29
2019-02-07T00:38:37.579Z,66.09
2019-02-07T00:39:12.280Z,66.07
2019-02-07T00:39:46.651Z,66.12
2019-02-07T00:40:21.018Z,66.20
2019-02-07T00:40:55.337Z,66.19
2019-02-07T00:41:29.701Z,66.26
2019-02-07T00:42:04.292Z,66.32
2019-02-07T00:42:38.648Z,66.26
2019-02-07T00:43:12.965Z,66.26
2019-02-07T00:43:47.518Z,66.26
2019-02-07T00:44:22.163Z,66.31
2019-02-07T00:44:56.500Z,66.36
2019-02-07T00:45:30.925Z,66.33
2019-02-07T00:46:05.760Z,66.23
2019-02-07T00:46:40.333Z,66.16
2019-02-07T00:47:15.256Z,66.28
2019-02-07T00:47:49.768Z,66.36
2019-02-07T00:48:24.451Z,66.44
2019-02-07T00:48:58.790Z,66.41
2019-02-07T00:49:33.167Z,66.09
2019-02-07T00:50:08.006Z,65.30
2019-02-07T00:50:42.622Z,65.37
2019-02-07T00:51:17.005Z,65.45
2019-02-07T00:51:51.369Z,65.55
2019-02-07T00:52:25.991Z,65.61
2019-02-07T00:53:00.324Z,65.53
2019-02-07T00:53:34.955Z,65.67
2019-02-07T00:54:09.302Z,65.81
2019-02-07T00:54:43.666Z,65.89
2019-02-07T00:55:18.120Z,65.97
2019-02-07T00:55:52.460Z,65.99
2019-02-07T00:56:26.800Z,66.01
2019-02-07T00:57:01.726Z,65.71
2019-02-07T00:57:36.628Z,65.38
2019-02-07T00:58:10.977Z,65.36
2019-02-07T00:58:45.364Z,65.40
2019-02-07T00:59:19.743Z,65.40
2019-02-07T00:59:54.616Z,65.45
2019-02-07T01:00:28.995Z,65.55
2019-02-07T01:01:03.382Z,65.26
2019-02-07T01:01:37.725Z,65.29
2019-02-07T01:02:12.072Z,65.06
2019-02-07T01:02:46.678Z,65.16
2019-02-07T01:03:21.020Z,65.05
2019-02-07T01:03:55.656Z,65.11
2019-02-07T01:04:30.297Z,65.06
2019-02-07T01:05:06.102Z,64.89
2019-02-07T01:05:40.567Z,65.00
2019-02-07T01:06:15.149Z,65.13
2019-02-07T01:06:49.519Z,65.05
2019-02-07T01:07:23.896Z,65.09
2019-02-07T01:07:58.564Z,65.13
2019-02-07T01:08:32.915Z,65.16
2019-02-07T01:09:09.667Z,64.80
2019-02-07T01:09:44.032Z,64.83
2019-02-07T01:10:21.600Z,65.14
2019-02-07T01:10:55.934Z,65.45
2019-02-07T01:11:31.013Z,65.59
2019-02-07T01:12:06.174Z,65.69
2019-02-07T01:12:41.111Z,65.76
2019-02-07T01:13:15.703Z,65.82
2019-02-07T01:13:50.610Z,65.76
2019-02-07T01:14:25.219Z,65.87
2019-02-07T01:15:02.253Z,65.88
2019-02-07T01:15:35.723Z,66.02
2019-02-07T01:16:10.053Z,66.24
2019-02-07T01:16:44.394Z,66.35
2019-02-07T01:17:18.733Z,66.41
2019-02-07T01:17:53.477Z,66.47
2019-02-07T01:18:27.822Z,66.43
2019-02-07T01:19:02.296Z,66.45
2019-02-07T01:19:37.092Z,66.43
2019-02-07T01:20:12.714Z,66.05
2019-02-07T01:20:47.057Z,65.76
2019-02-07T01:21:21.669Z,65.79
2019-02-07T01:21:55.988Z,65.91
2019-02-07T01:22:30.663Z,66.03
2019-02-07T01:23:05.365Z,66.21
2019-02-07T01:23:39.958Z,66.28
2019-02-07T01:24:14.279Z,66.31
2019-02-07T01:24:48.920Z,66.21
2019-02-07T01:25:23.640Z,66.31
2019-02-07T01:25:58.022Z,66.42
2019-02-07T01:26:32.952Z,66.27
2019-02-07T01:27:07.557Z,66.34
2019-02-07T01:27:42.143Z,66.44
2019-02-07T01:28:16.511Z,66.51
2019-02-07T01:28:50.856Z,66.52
2019-02-07T01:29:25.205Z,66.55
2019-02-07T01:29:59.571Z,66.41
2019-02-07T01:30:33.899Z,66.35
2019-02-07T01:31:08.359Z,66.53
2019-02-07T01:31:42.977Z,66.55
2019-02-07T01:32:17.307Z,66.66
2019-02-07T01:32:51.648Z,66.78
2019-02-07T01:33:25.992Z,67.05
2019-02-07T01:34:00.912Z,67.31
2019-02-07T01:34:35.237Z,67.46
2019-02-07T01:35:10.097Z,67.62
2019-02-07T01:35:44.533Z,67.80
2019-02-07T01:36:18.846Z,67.84
2019-02-07T01:36:53.175Z,67.82
2019-02-07T01:37:28.107Z,67.82
2019-02-07T01:38:02.836Z,67.91
2019-02-07T01:38:37.414Z,67.93
2019-02-07T01:39:11.862Z,67.96
2019-02-07T01:39:46.707Z,67.87
2019-02-07T01:40:21.592Z,67.78
2019-02-07T01:40:56.204Z,67.73
2019-02-07T01:41:30.574Z,67.63
2019-02-07T01:42:05.362Z,67.60
2019-02-07T01:42:39.697Z,67.49
2019-02-07T01:43:14.045Z,67.42
2019-02-07T01:43:48.384Z,67.41
2019-02-07T01:44:22.728Z,67.37
2019-02-07T01:44:57.357Z,67.37
2019-02-07T01:45:31.723Z,67.38
2019-02-07T01:46:06.072Z,67.33
2019-02-07T01:46:40.497Z,67.29
2019-02-07T01:47:15.176Z,67.25
2019-02-07T01:47:49.888Z,67.21
2019-02-07T01:48:24.223Z,67.19
2019-02-07T01:48:58.553Z,67.19
2019-02-07T01:49:32.920Z,67.24
2019-02-07T01:50:09.116Z,67.14
2019-02-07T01:50:43.734Z,66.99
2019-02-07T01:51:18.074Z,67.10
2019-02-07T01:51:52.491Z,67.20
2019-02-07T01:52:26.858Z,67.29
2019-02-07T01:53:01.225Z,67.39
2019-02-07T01:53:35.577Z,67.41
2019-02-07T01:54:10.234Z,67.31
2019-02-07T01:54:44.518Z,67.20
2019-02-07T01:55:19.250Z,67.08
2019-02-07T01:55:53.836Z,67.05
2019-02-07T01:56:28.165Z,67.07
2019-02-07T01:57:02.493Z,67.09
2019-02-07T01:57:37.100Z,67.10
2019-02-07T01:58:11.441Z,66.92
2019-02-07T01:58:45.772Z,66.97
2019-02-07T01:59:20.431Z,67.04
2019-02-07T01:59:54.764Z,67.09
2019-02-07T02:00:29.133Z,67.18
2019-02-07T02:01:03.562Z,67.17
2019-02-07T02:01:37.913Z,66.92
2019-02-07T02:02:12.249Z,66.96
2019-02-07T02:02:46.970Z,67.04
2019-02-07T02:03:21.565Z,66.87
2019-02-07T02:03:55.910Z,66.91
2019-02-07T02:04:30.533Z,67.01
2019-02-07T02:05:06.012Z,67.10
2019-02-07T02:05:40.374Z,67.14
2019-02-07T02:06:14.947Z,67.14
2019-02-07T02:06:49.290Z,67.19
2019-02-07T02:07:23.636Z,67.17
2019-02-07T02:07:58.063Z,67.17
2019-02-07T02:08:32.510Z,67.14
2019-02-07T02:09:08.825Z,67.23
2019-02-07T02:09:43.156Z,67.19
2019-02-07T02:10:19.430Z,67.16
2019-02-07T02:10:54.037Z,67.15
2019-02-07T02:11:28.380Z,67.14
2019-02-07T02:12:02.881Z,67.02
2019-02-07T02:12:37.581Z,66.98
2019-02-07T02:13:12.047Z,66.87
2019-02-07T02:13:46.759Z,66.90
2019-02-07T02:14:21.120Z,66.77
2019-02-07T02:14:55.456Z,66.55
2019-02-07T02:15:29.843Z,66.39
2019-02-07T02:16:04.260Z,66.31
2019-02-07T02:16:38.773Z,66.37
2019-02-07T02:17:13.123Z,66.32
2019-02-07T02:17:47.855Z,66.34
2019-02-07T02:18:22.233Z,66.25
2019-02-07T02:18:56.678Z,66.28
2019-02-07T02:19:31.571Z,66.29
2019-02-07T02:20:07.067Z,66.27
2019-02-07T02:20:41.420Z,66.38
2019-02-07T02:21:15.770Z,66.51
2019-02-07T02:21:50.172Z,66.50
2019-02-07T02:22:24.659Z,66.44
2019-02-07T02:22:59.170Z,66.29
2019-02-07T02:23:34.125Z,66.13
2019-02-07T02:24:08.990Z,66.01
2019-02-07T02:24:45.246Z,65.83
2019-02-07T02:25:19.576Z,65.60
2019-02-07T02:25:54.093Z,65.42
2019-02-07T02:26:28.525Z,65.40
2019-02-07T02:27:03.181Z,65.22
2019-02-07T02:27:37.847Z,65.21
2019-02-07T02:28:12.278Z,65.24
2019-02-07T02:28:46.920Z,65.29
2019-02-07T02:29:21.372Z,65.10
2019-02-07T02:29:56.065Z,65.10
2019-02-07T02:30:32.659Z,65.08
2019-02-07T02:31:08.619Z,65.03
2019-02-07T02:31:43.094Z,65.08
2019-02-07T02:32:17.720Z,65.05
2019-02-07T02:32:52.046Z,64.66
2019-02-07T02:33:26.955Z,64.73
2019-02-07T02:34:01.366Z,64.79
2019-02-07T02:34:36.019Z,64.89
2019-02-07T02:35:10.955Z,64.96
2019-02-07T02:35:45.655Z,65.06
2019-02-07T02:36:20.014Z,65.22
2019-02-07T02:36:54.768Z,65.28
2019-02-07T02:37:29.192Z,65.29
2019-02-07T02:38:03.766Z,65.38
2019-02-07T02:38:38.474Z,65.44
2019-02-07T02:39:13.352Z,65.45
2019-02-07T02:39:48.313Z,65.46
2019-02-07T02:40:22.927Z,65.55
2019-02-07T02:40:57.777Z,65.80
2019-02-07T02:41:32.473Z,65.99
2019-02-07T02:42:07.184Z,66.20
2019-02-07T02:42:41.645Z,66.25
2019-02-07T02:43:16.680Z,66.37
2019-02-07T02:43:51.140Z,66.28
2019-02-07T02:44:25.498Z,66.18
2019-02-07T02:45:00.141Z,66.15
2019-02-07T02:45:37.579Z,66.11
2019-02-07T02:46:11.109Z,66.00
2019-02-07T02:46:45.482Z,66.05
2019-02-07T02:47:19.843Z,66.03
2019-02-07T02:47:54.449Z,66.13
2019-02-07T02:48:29.159Z,66.10
2019-02-07T02:49:03.916Z,66.14
2019-02-07T02:49:38.405Z,65.82
2019-02-07T02:50:15.097Z,65.73
2019-02-07T02:50:49.501Z,65.72
2019-02-07T02:51:23.961Z,65.71
2019-02-07T02:51:58.339Z,65.53
2019-02-07T02:52:33.024Z,65.57
2019-02-07T02:53:07.461Z,65.59
2019-02-07T02:53:42.085Z,65.58
2019-02-07T02:54:38.307Z,65.72
2019-02-07T02:55:14.989Z,65.90
2019-02-07T02:55:49.398Z,65.97
2019-02-07T02:56:23.788Z,66.04
2019-02-07T02:56:58.445Z,66.13
2019-02-07T02:57:33.264Z,66.14
2019-02-07T02:58:08.080Z,65.97
2019-02-07T02:58:42.905Z,65.96
2019-02-07T02:59:17.248Z,65.96
2019-02-07T02:59:51.900Z,65.94
2019-02-07T03:00:35.021Z,66.01
2019-02-07T03:01:28.450Z,66.02
2019-02-07T03:02:19.655Z,66.04
2019-02-07T03:03:11.878Z,65.90
2019-02-07T03:04:05.184Z,65.85
2019-02-07T03:05:09.593Z,65.86
2019-02-07T03:06:14.989Z,65.83
2019-02-07T03:07:17.887Z,65.67
2019-02-07T03:08:12.362Z,65.71
2019-02-07T03:09:05.696Z,65.69
2019-02-07T03:09:58.127Z,65.49
2019-02-07T03:10:58.167Z,65.08
2019-02-07T03:12:00.339Z,65.22
2019-02-07T03:12:52.331Z,65.21
2019-02-07T03:13:51.711Z,65.20
2019-02-07T03:14:51.163Z,65.35
2019-02-07T03:15:50.644Z,65.22
2019-02-07T03:16:43.571Z,65.22
2019-02-07T03:17:36.902Z,65.04
2019-02-07T03:18:30.640Z,65.12
2019-02-07T03:19:24.108Z,65.14
2019-02-07T03:20:29.812Z,65.02
2019-02-07T03:21:29.335Z,64.81
2019-02-07T03:22:22.788Z,64.91
2019-02-07T03:23:13.801Z,64.72
2019-02-07T03:24:07.902Z,64.73
2019-02-07T03:25:10.486Z,64.84
2019-02-07T03:26:03.837Z,64.79
2019-02-07T03:27:12.073Z,64.81
2019-02-07T03:28:02.370Z,64.94
2019-02-07T03:28:59.018Z,64.94
2019-02-07T03:29:55.872Z,64.94
2019-02-07T03:30:47.803Z,64.84
2019-02-07T03:31:40.122Z,64.94
2019-02-07T03:32:51.744Z,64.45
2019-02-07T03:33:45.615Z,64.66
2019-02-07T03:34:37.453Z,64.76
2019-02-07T03:35:39.847Z,64.72
2019-02-07T03:36:37.358Z,64.98
2019-02-07T03:37:39.671Z,65.06
2019-02-07T03:38:27.646Z,65.17
2019-02-07T03:39:10.590Z,65.21
2019-02-07T03:40:06.877Z,65.23
2019-02-07T03:41:01.858Z,65.30
2019-02-07T03:42:01.649Z,65.28
2019-02-07T03:43:07.257Z,65.22
2019-02-07T03:44:15.584Z,65.13
2019-02-07T03:45:21.163Z,65.09
2019-02-07T03:46:20.566Z,65.14
2019-02-07T03:47:12.331Z,65.24
2019-02-07T03:48:04.661Z,65.48
2019-02-07T03:49:00.914Z,65.67
2019-02-07T03:49:57.710Z,65.21
2019-02-07T03:51:56.552Z,65.57
2019-02-07T03:53:05.443Z,65.63
2019-02-07T03:53:57.183Z,65.74
2019-02-07T03:55:02.241Z,65.85
2019-02-07T03:55:58.669Z,66.14
2019-02-07T03:56:46.291Z,66.21
2019-02-07T03:57:42.839Z,66.31
2019-02-07T03:58:36.240Z,66.28
2019-02-07T03:59:29.676Z,66.38
2019-02-07T04:00:23.620Z,66.30
2019-02-07T04:01:15.553Z,66.35
2019-02-07T04:02:18.548Z,66.36
2019-02-07T04:03:10.550Z,66.37
2019-02-07T04:04:03.905Z,66.17
2019-02-07T04:04:57.353Z,66.00
2019-02-07T04:05:53.780Z,65.54
2019-02-07T04:06:41.795Z,65.96
2019-02-07T04:07:44.272Z,65.61
2019-02-07T04:08:37.636Z,65.40
2019-02-07T04:09:29.645Z,65.79
2019-02-07T04:10:24.202Z,65.95
2019-02-07T04:11:21.618Z,66.14
2019-02-07T04:12:14.964Z,66.24
2019-02-07T04:13:02.176Z,66.14
2019-02-07T04:13:55.532Z,66.22
2019-02-07T04:14:47.637Z,66.27
2019-02-07T04:15:40.997Z,66.30
2019-02-07T04:16:24.974Z,66.46
2019-02-07T04:17:21.466Z,66.21
2019-02-07T04:18:17.881Z,66.26
2019-02-07T04:19:11.532Z,66.12
2019-02-07T04:19:55.881Z,66.14
2019-02-07T04:20:52.425Z,65.62
2019-02-07T04:21:45.846Z,65.27
2019-02-07T04:22:37.991Z,65.23
2019-02-07T04:23:34.123Z,65.25
2019-02-07T04:24:18.751Z,65.37
2019-02-07T04:25:10.606Z,65.48
2019-02-07T04:26:22.518Z,65.67
2019-02-07T04:27:28.121Z,65.78
2019-02-07T04:28:23.301Z,65.55
2019-02-07T04:29:15.137Z,65.47
2019-02-07T04:31:03.088Z,65.42
2019-02-07T04:32:02.012Z,64.95
2019-02-07T04:32:54.021Z,65.07
2019-02-07T04:33:53.566Z,65.32
2019-02-07T04:34:45.481Z,65.14
2019-02-07T04:35:41.908Z,65.27
2019-02-07T04:36:44.361Z,65.50
2019-02-07T04:37:37.340Z,65.36
2019-02-07T04:38:33.441Z,65.09
2019-02-07T04:39:33.888Z,64.68
2019-02-07T04:40:21.928Z,64.54
2019-02-07T04:41:19.933Z,64.43
2019-02-07T04:42:11.666Z,64.29
2019-02-07T04:43:10.752Z,63.78
2019-02-07T04:44:10.318Z,63.63
2019-02-07T04:44:56.997Z,64.16
2019-02-07T04:45:40.461Z,64.02
2019-02-07T04:46:47.603Z,64.22
2019-02-07T04:47:39.467Z,64.50
2019-02-07T04:48:23.147Z,64.29
2019-02-07T04:49:22.369Z,64.09
2019-02-07T04:50:11.017Z,64.18
2019-02-07T04:51:07.205Z,64.31
2019-02-07T04:51:59.261Z,64.03
2019-02-07T04:53:07.970Z,64.01
2019-02-07T04:53:55.798Z,64.47
2019-02-07T04:54:52.831Z,64.62
2019-02-07T04:55:52.309Z,64.68
2019-02-07T04:56:46.504Z,64.44
2019-02-07T04:57:39.939Z,63.89
2019-02-07T04:58:42.270Z,64.50
2019-02-07T04:59:38.330Z,64.17
2019-02-07T05:00:32.060Z,64.38
2019-02-07T05:01:21.105Z,64.39
2019-02-07T05:02:13.376Z,64.33
2019-02-07T05:02:56.256Z,64.08
2019-02-07T05:03:49.767Z,63.68
2019-02-07T05:04:52.011Z,63.68
2019-02-07T05:05:51.378Z,63.84
2019-02-07T05:06:47.807Z,64.08
2019-02-07T05:07:55.914Z,64.31
2019-02-07T05:08:49.496Z,64.26
2019-02-07T05:09:41.556Z,64.00
2019-02-07T05:10:35.276Z,64.02
2019-02-07T05:11:31.630Z,64.04
2019-02-07T05:12:34.228Z,64.01
2019-02-07T05:13:33.625Z,63.51
2019-02-07T05:14:29.832Z,63.26
2019-02-07T05:15:14.949Z,63.56
2019-02-07T05:16:09.092Z,63.45
2019-02-07T05:17:07.455Z,63.80
2019-02-07T05:18:10.326Z,63.69
2019-02-07T05:19:00.654Z,63.80
2019-02-07T05:19:52.728Z,63.57
2019-02-07T05:20:55.168Z,63.48
2019-02-07T05:21:47.628Z,63.88
2019-02-07T05:22:34.129Z,64.21
2019-02-07T05:23:30.613Z,64.45
2019-02-07T05:24:24.245Z,64.53
2019-02-07T05:25:13.766Z,64.33
2019-02-07T05:26:12.945Z,63.96
2019-02-07T05:27:18.422Z,64.15
2019-02-07T05:28:14.617Z,64.22
2019-02-07T05:29:07.831Z,64.31
2019-02-07T05:30:04.290Z,64.47
2019-02-07T05:31:03.371Z,64.31
2019-02-07T05:32:09.117Z,63.91
2019-02-07T05:32:55.278Z,64.04
2019-02-07T05:33:45.459Z,64.11
2019-02-07T05:34:38.334Z,64.23
2019-02-07T05:35:30.254Z,64.17
2019-02-07T05:36:23.672Z,64.36
2019-02-07T05:37:15.335Z,64.15
2019-02-07T05:38:23.644Z,64.13
2019-02-07T05:39:20.309Z,64.06
2019-02-07T05:40:12.302Z,63.99
2019-02-07T05:41:17.888Z,64.11
2019-02-07T05:42:15.779Z,64.26
2019-02-07T05:43:23.999Z,64.55
2019-02-07T05:44:21.319Z,64.49
2019-02-07T05:45:08.666Z,64.40
2019-02-07T05:46:05.081Z,64.40
2019-02-07T05:46:57.003Z,64.42
2019-02-07T05:47:53.979Z,64.41
2019-02-07T05:48:49.649Z,64.31
2019-02-07T05:49:49.124Z,64.03
2019-02-07T05:50:42.849Z,64.25
2019-02-07T05:51:34.912Z,64.35
2019-02-07T05:52:37.181Z,64.28
2019-02-07T05:53:33.677Z,64.08
2019-02-07T05:54:26.998Z,64.07
2019-02-07T05:55:26.496Z,64.18
2019-02-07T05:56:09.944Z,64.09
2019-02-07T05:57:09.361Z,64.04
2019-02-07T05:58:13.241Z,64.18
2019-02-07T05:59:02.836Z,63.96
2019-02-07T05:59:58.267Z,64.12
2019-02-07T06:00:48.027Z,63.93
2019-02-07T06:01:40.001Z,64.15
2019-02-07T06:02:24.609Z,64.31
2019-02-07T06:03:10.531Z,64.51
2019-02-07T06:04:06.981Z,64.12
2019-02-07T06:05:11.663Z,64.34
2019-02-07T06:06:04.997Z,63.98
2019-02-07T06:07:07.762Z,64.26
2019-02-07T06:07:57.038Z,64.19
2019-02-07T06:08:50.530Z,64.13
2019-02-07T06:09:42.584Z,64.03
2019-02-07T06:10:44.826Z,63.70
2019-02-07T06:11:31.095Z,63.79
2019-02-07T06:12:27.484Z,63.87
2019-02-07T06:13:19.082Z,63.63
2019-02-07T06:14:11.087Z,63.64
2019-02-07T06:15:10.291Z,63.93
2019-02-07T06:15:57.025Z,64.12
2019-02-07T06:17:02.765Z,64.12
2019-02-07T06:17:50.104Z,63.84
2019-02-07T06:18:35.890Z,64.03
2019-02-07T06:19:23.997Z,64.05
2019-02-07T06:20:09.216Z,63.95
2019-02-07T06:20:57.922Z,64.01
2019-02-07T06:21:48.291Z,64.10
2019-02-07T06:22:29.796Z,63.65
2019-02-07T06:23:17.856Z,63.60
2019-02-07T06:24:29.378Z,63.63
2019-02-07T06:25:24.168Z,63.40
2019-02-07T06:26:08.307Z,63.20
2019-02-07T06:27:10.518Z,63.20
2019-02-07T06:28:09.867Z,63.30
2019-02-07T06:29:08.731Z,63.31
2019-02-07T06:30:07.863Z,63.22
2019-02-07T06:30:47.518Z,62.81
2019-02-07T06:31:49.923Z,62.92
2019-02-07T06:32:41.424Z,62.77
2019-02-07T06:33:40.746Z,62.60
2019-02-07T06:34:32.213Z,62.72
2019-02-07T06:35:26.727Z,62.64
2019-02-07T06:36:28.905Z,62.70
2019-02-07T06:37:18.768Z,62.75
2019-02-07T06:38:12.076Z,62.80
2019-02-07T06:39:08.485Z,62.84
2019-02-07T06:40:04.799Z,62.78
2019-02-07T06:40:56.558Z,62.38
2019-02-07T06:41:59.303Z,62.41
2019-02-07T06:42:52.772Z,62.18
2019-02-07T06:43:36.959Z,62.29
2019-02-07T06:44:19.276Z,62.10
2019-02-07T06:45:11.549Z,62.50
2019-02-07T06:46:03.860Z,62.48
2019-02-07T06:46:55.970Z,62.32
2019-02-07T06:47:55.364Z,62.35
2019-02-07T06:48:48.957Z,62.37
2019-02-07T06:49:40.966Z,62.23
2019-02-07T06:50:27.253Z,62.14
2019-02-07T06:51:26.751Z,62.24
2019-02-07T06:52:18.524Z,62.48
2019-02-07T06:53:11.249Z,61.96
2019-02-07T06:54:03.682Z,61.94
2019-02-07T06:54:51.427Z,61.87
2019-02-07T06:55:43.385Z,61.75
2019-02-07T06:56:33.373Z,62.08
2019-02-07T06:57:39.395Z,62.26
2019-02-07T06:58:32.746Z,62.12
2019-02-07T06:59:24.824Z,62.20
2019-02-07T07:00:36.084Z,61.84
2019-02-07T07:01:35.412Z,61.70
2019-02-07T07:02:29.110Z,61.57
2019-02-07T07:03:21.059Z,61.27
2019-02-07T07:04:17.220Z,61.25
2019-02-07T07:05:10.538Z,61.15
2019-02-07T07:06:02.679Z,61.06
2019-02-07T07:06:59.263Z,60.86
2019-02-07T07:07:52.583Z,60.88
2019-02-07T07:08:55.895Z,60.83
2019-02-07T07:09:46.378Z,60.96
2019-02-07T07:10:57.931Z,60.89
2019-02-07T07:11:55.425Z,61.14
2019-02-07T07:12:50.898Z,61.07
2019-02-07T07:13:53.784Z,60.91
2019-02-07T07:14:41.990Z,60.76
2019-02-07T07:15:28.791Z,60.81
2019-02-07T07:16:25.544Z,60.83
2019-02-07T07:17:26.077Z,60.62
2019-02-07T07:18:17.057Z,61.00
2019-02-07T07:19:13.416Z,61.00
2019-02-07T07:20:15.571Z,60.82
2019-02-07T07:21:27.097Z,60.89
2019-02-07T07:22:22.291Z,60.99
2019-02-07T07:23:14.497Z,60.98
2019-02-07T07:24:10.506Z,61.06
2019-02-07T07:25:02.242Z,61.09
2019-02-07T07:25:58.658Z,60.87
2019-02-07T07:26:50.214Z,60.88
2019-02-07T07:27:36.281Z,60.93
2019-02-07T07:28:47.502Z,60.96
2019-02-07T07:29:32.582Z,60.89
2019-02-07T07:30:31.880Z,60.92
2019-02-07T07:31:25.177Z,60.78
2019-02-07T07:32:16.955Z,60.40
2019-02-07T07:33:01.226Z,60.62
2019-02-07T07:34:06.434Z,60.83
2019-02-07T07:35:14.648Z,60.64
2019-02-07T07:36:06.713Z,60.61
2019-02-07T07:36:54.054Z,60.38
2019-02-07T07:37:46.081Z,60.44
2019-02-07T07:38:43.392Z,60.31
2019-02-07T07:39:35.496Z,60.42
2019-02-07T07:40:29.211Z,60.84
2019-02-07T07:41:28.632Z,60.72
2019-02-07T07:42:24.752Z,60.44
2019-02-07T07:43:20.872Z,60.67
2019-02-07T07:44:32.113Z,60.97
2019-02-07T07:45:16.546Z,60.82
2019-02-07T07:46:09.528Z,60.71
2019-02-07T07:47:03.177Z,60.52
2019-02-07T07:48:11.695Z,60.98
2019-02-07T07:49:10.857Z,60.88
2019-02-07T07:50:04.707Z,60.65
2019-02-07T07:50:56.782Z,61.25
2019-02-07T07:51:44.370Z,61.18
2019-02-07T07:52:36.634Z,61.80
2019-02-07T07:53:28.621Z,61.23
2019-02-07T07:54:28.326Z,61.61
2019-02-07T07:55:14.273Z,61.75
2019-02-07T07:56:06.316Z,61.67
2019-02-07T07:56:58.542Z,61.91
2019-02-07T07:57:58.501Z,61.87
2019-02-07T07:58:43.891Z,62.35
2019-02-07T07:59:33.647Z,62.57
2019-02-07T08:00:28.637Z,62.89
2019-02-07T08:01:22.518Z,63.84
2019-02-07T08:02:19.293Z,63.25
2019-02-07T08:03:15.923Z,63.21
2019-02-07T08:04:00.575Z,62.81
2019-02-07T08:04:52.485Z,63.49
2019-02-07T08:05:43.121Z,63.12
2019-02-07T08:06:26.627Z,62.86
2019-02-07T08:07:18.653Z,63.32
2019-02-07T08:08:24.127Z,63.66
2019-02-07T08:09:23.558Z,63.35
2019-02-07T08:10:15.653Z,63.98
2019-02-07T08:10:58.725Z,63.79
2019-02-07T08:11:46.245Z,64.03
2019-02-07T08:12:38.623Z,64.60
2019-02-07T08:13:27.679Z,64.75
2019-02-07T08:14:26.868Z,64.09
2019-02-07T08:15:15.377Z,63.72
2019-02-07T08:15:58.070Z,64.25
2019-02-07T08:16:48.738Z,64.12
2019-02-07T08:17:47.414Z,64.27
2019-02-07T08:18:38.939Z,64.70
2019-02-07T08:19:31.332Z,64.02
2019-02-07T08:20:26.181Z,64.77
2019-02-07T08:21:08.867Z,63.84
2019-02-07T08:21:54.515Z,64.00
2019-02-07T08:23:05.810Z,63.46
2019-02-07T08:23:57.263Z,63.73
2019-02-07T08:24:49.375Z,64.12
2019-02-07T08:25:41.169Z,64.03
2019-02-07T08:26:40.679Z,63.54
2019-02-07T08:27:34.832Z,63.12
2019-02-07T08:28:26.692Z,63.37
2019-02-07T08:29:25.938Z,63.35
2019-02-07T08:30:12.571Z,63.39
2019-02-07T08:31:07.045Z,63.03
2019-02-07T08:32:05.408Z,63.62
2019-02-07T08:32:54.116Z,63.10
2019-02-07T08:33:39.199Z,63.27
2019-02-07T08:34:30.054Z,63.37
2019-02-07T08:35:35.592Z,62.51
2019-02-07T08:36:38.059Z,62.82
2019-02-07T08:37:37.249Z,62.17
2019-02-07T08:38:29.132Z,62.67
2019-02-07T08:39:23.977Z,62.67
2019-02-07T08:40:35.251Z,62.64
2019-02-07T08:41:27.155Z,62.74
2019-02-07T08:42:09.955Z,62.42
2019-02-07T08:43:01.825Z,62.68
2019-02-07T08:43:55.222Z,62.56
2019-02-07T08:44:47.019Z,62.42
2019-02-07T08:45:39.165Z,62.72
2019-02-07T08:46:30.889Z,62.60
2019-02-07T08:47:36.535Z,62.40
2019-02-07T08:48:25.051Z,62.28
2019-02-07T08:49:19.360Z,62.24
2019-02-07T08:50:24.454Z,62.56
2019-02-07T08:51:23.876Z,62.36
2019-02-07T08:52:15.924Z,62.63
2019-02-07T08:53:08.479Z,62.79
2019-02-07T08:54:01.843Z,62.82
2019-02-07T08:55:01.119Z,62.67
2019-02-07T08:55:56.446Z,62.57
2019-02-07T08:56:48.606Z,63.01
2019-02-07T08:57:36.360Z,63.30
2019-02-07T08:58:45.127Z,63.15
2019-02-07T08:59:47.372Z,63.55
2019-02-07T09:00:42.922Z,63.02
2019-02-07T09:01:42.740Z,63.00
2019-02-07T09:02:34.927Z,63.18
2019-02-07T09:03:26.854Z,63.15
2019-02-07T09:04:23.652Z,63.64
2019-02-07T09:05:11.869Z,63.68
2019-02-07T09:06:00.526Z,63.63
2019-02-07T09:07:08.083Z,64.12
2019-02-07T09:08:10.237Z,64.14
2019-02-07T09:09:03.063Z,64.18
2019-02-07T09:10:02.450Z,64.20
2019-02-07T09:11:02.201Z,64.65
2019-02-07T09:11:47.003Z,65.23
2019-02-07T09:12:43.181Z,65.18
2019-02-07T09:13:26.169Z,64.71
2019-02-07T09:14:28.817Z,65.08
2019-02-07T09:15:14.171Z,64.97
2019-02-07T09:16:13.449Z,65.21
2019-02-07T09:17:06.787Z,65.03
2019-02-07T09:18:11.501Z,65.96
2019-02-07T09:19:09.813Z,66.33
2019-02-07T09:20:01.803Z,66.57
2019-02-07T09:20:51.093Z,65.88
2019-02-07T09:21:50.674Z,65.94
2019-02-07T09:22:33.491Z,65.82
2019-02-07T09:23:27.096Z,65.75
2019-02-07T09:24:26.188Z,66.11
2019-02-07T09:25:22.374Z,65.65
2019-02-07T09:26:14.101Z,66.06
2019-02-07T09:27:13.839Z,65.76
2019-02-07T09:28:06.486Z,65.62
2019-02-07T09:28:54.707Z,65.80
2019-02-07T09:29:46.713Z,65.54
2019-02-07T09:30:49.487Z,65.51
2019-02-07T09:31:39.177Z,65.65
2019-02-07T09:32:32.558Z,65.54
2019-02-07T09:33:29.224Z,65.54
2019-02-07T09:34:28.698Z,65.21
2019-02-07T09:35:19.489Z,65.01
2019-02-07T09:36:11.615Z,65.04
2019-02-07T09:37:00.115Z,65.15
2019-02-07T09:37:53.418Z,65.36
2019-02-07T09:39:01.099Z,65.03
2019-02-07T09:39:54.415Z,65.71
2019-02-07T09:40:46.184Z,66.56
2019-02-07T09:41:51.495Z,66.52
2019-02-07T09:42:43.415Z,66.63
2019-02-07T09:43:48.986Z,66.98
2019-02-07T09:44:40.761Z,67.54
2019-02-07T09:45:36.444Z,68.48
2019-02-07T09:46:38.652Z,68.90
2019-02-07T09:47:30.841Z,68.56
2019-02-07T09:48:36.968Z,68.48
2019-02-07T09:49:28.935Z,68.92
2019-02-07T09:50:25.377Z,68.85
2019-02-07T09:51:10.141Z,69.83
2019-02-07T09:52:01.800Z,69.58
2019-02-07T09:53:01.316Z,69.62
2019-02-07T09:54:06.573Z,69.96
2019-02-07T09:54:55.977Z,70.44
2019-02-07T09:55:55.397Z,70.10
2019-02-07T09:56:51.617Z,70.11
2019-02-07T09:57:44.951Z,70.40
2019-02-07T09:58:47.181Z,70.70
2019-02-07T09:59:39.019Z,70.24
2019-02-07T10:00:39.179Z,70.43
2019-02-07T10:01:30.970Z,71.02
2019-02-07T10:02:30.159Z,70.81
2019-02-07T10:03:32.696Z,71.47
2019-02-07T10:04:32.073Z,71.09
2019-02-07T10:05:29.469Z,71.34